This is the latest recevied weather packets stored in our database for station/object K0APR. If no packets are shown the sender has not sent any weather packets the latest 1 day(s).
| Time | Temp. | Humidity | Pressure | Rain* | Wind** | Luminosity | Snow |
|---|---|---|---|---|---|---|---|
| 1778075985 | 3.89° C | 60% | 1017.9 hPa | 0 mm | - | 83 W/m² | - |
| 1778075683 | 3.89° C | 59% | 1017.5 hPa | 0 mm | - | 67 W/m² | - |
| 1778075075 | 3.89° C | 60% | 1017.9 hPa | 0 mm | - | 81 W/m² | - |
| 1778074772 | 3.89° C | 61% | 1017.5 hPa | 0 mm | - | 75 W/m² | - |
| 1778074166 | 3.89° C | 61% | 1017.5 hPa | 0 mm | - | 69 W/m² | - |
| 1778072954 | 3.89° C | 64% | 1017.5 hPa | 0 mm | - | 58 W/m² | - |
| 1778072650 | 3.33° C | 64% | 1017.5 hPa | 0 mm | - | 52 W/m² | - |
| 1778071441 | 3.33° C | 66% | 1017.2 hPa | 0 mm | - | 41 W/m² | - |
| 1778071139 | 2.78° C | 67% | 1017.2 hPa | 0 mm | - | 39 W/m² | - |
| 1778070837 | 2.78° C | 67% | 1017.2 hPa | 0 mm | - | 37 W/m² | - |
| 1778070534 | 2.78° C | 67% | 1017.2 hPa | 0 mm | - | 34 W/m² | - |
| 1778066903 | 2.22° C | 68% | 1016.5 hPa | 0 mm | - | 6 W/m² | - |
| 1778065693 | 2.22° C | 68% | 1016.1 hPa | 0 mm | - | 1 W/m² | - |
| 1778063876 | 3.33° C | 65% | 1015.8 hPa | 0 mm | - | 0 W/m² | - |
| 1778063573 | 3.33° C | 65% | 1016.1 hPa | 0 mm | - | 0 W/m² | - |
| 1778062665 | 3.33° C | 65% | 1015.8 hPa | 0 mm | - | 0 W/m² | - |
| 1778061456 | 3.33° C | 65% | 1015.8 hPa | 0 mm | - | 0 W/m² | - |
| 1778060849 | 3.33° C | 64% | 1016.1 hPa | 0 mm | - | 0 W/m² | - |
| 1778060547 | 3.89° C | 64% | 1016.1 hPa | 0 mm | - | 0 W/m² | - |
| 1778060246 | 3.89° C | 63% | 1016.1 hPa | 0 mm | - | 0 W/m² | - |
| 1778059035 | 3.89° C | 64% | 1015.5 hPa | 0 mm | - | 0 W/m² | - |
| 1778058430 | 3.89° C | 63% | 1015.5 hPa | 0 mm | - | 0 W/m² | - |
| 1778057824 | 3.89° C | 62% | 1015.5 hPa | 0 mm | - | 0 W/m² | - |
| 1778056308 | 3.89° C | 61% | 1015.5 hPa | 0 mm | - | 0 W/m² | - |
| 1778056005 | 3.89° C | 61% | 1015.5 hPa | 0 mm | - | 0 W/m² | - |
* Rain latest hour (hover to see other rain measurements)
** Current wind speed in m/s (hover to see current wind gust speed)